sensor_id;sensor_type;location;lat;lon;timestamp;P1;durP1;ratioP1;P2;durP2;ratioP2
41921;SDS011;27609;51.002;5.354;2023-02-04T00:00:04;17.40;;;7.75;;
41921;SDS011;27609;51.002;5.354;2023-02-04T00:02:32;14.82;;;6.43;;
41921;SDS011;27609;51.002;5.354;2023-02-04T00:04:58;23.90;;;7.03;;
41921;SDS011;27609;51.002;5.354;2023-02-04T00:07:24;19.00;;;6.57;;
41921;SDS011;27609;51.002;5.354;2023-02-04T00:09:52;16.27;;;7.25;;
41921;SDS011;27609;51.002;5.354;2023-02-04T00:12:18;21.75;;;6.97;;
41921;SDS011;27609;51.002;5.354;2023-02-04T00:14:43;18.95;;;6.70;;
41921;SDS011;27609;51.002;5.354;2023-02-04T00:17:12;15.43;;;6.78;;
41921;SDS011;27609;51.002;5.354;2023-02-04T00:19:38;18.23;;;6.95;;
41921;SDS011;27609;51.002;5.354;2023-02-04T00:22:04;24.00;;;7.82;;
41921;SDS011;27609;51.002;5.354;2023-02-04T00:24:31;18.75;;;7.90;;
41921;SDS011;27609;51.002;5.354;2023-02-04T00:26:58;19.63;;;6.80;;
41921;SDS011;27609;51.002;5.354;2023-02-04T00:29:24;15.60;;;6.80;;
41921;SDS011;27609;51.002;5.354;2023-02-04T00:35:18;11.40;;;6.38;;
41921;SDS011;27609;51.002;5.354;2023-02-04T00:37:45;17.30;;;6.68;;
41921;SDS011;27609;51.002;5.354;2023-02-04T00:40:11;14.50;;;6.57;;
41921;SDS011;27609;51.002;5.354;2023-02-04T00:42:37;16.83;;;7.28;;
41921;SDS011;27609;51.002;5.354;2023-02-04T00:45:04;13.20;;;6.47;;
41921;SDS011;27609;51.002;5.354;2023-02-04T00:50:53;13.00;;;5.53;;
41921;SDS011;27609;51.002;5.354;2023-02-04T00:56:23;10.35;;;5.20;;
41921;SDS011;27609;51.002;5.354;2023-02-04T00:58:49;10.32;;;5.00;;
41921;SDS011;27609;51.002;5.354;2023-02-04T01:01:14;14.00;;;4.85;;
41921;SDS011;27609;51.002;5.354;2023-02-04T01:03:40;11.70;;;4.88;;
41921;SDS011;27609;51.002;5.354;2023-02-04T01:06:06;9.77;;;4.20;;
41921;SDS011;27609;51.002;5.354;2023-02-04T01:08:31;14.80;;;4.53;;
41921;SDS011;27609;51.002;5.354;2023-02-04T01:10:57;8.32;;;3.92;;
41921;SDS011;27609;51.002;5.354;2023-02-04T01:16:45;8.00;;;3.58;;
41921;SDS011;27609;51.002;5.354;2023-02-04T01:29:19;10.10;;;2.75;;
41921;SDS011;27609;51.002;5.354;2023-02-04T01:31:45;8.15;;;1.90;;
41921;SDS011;27609;51.002;5.354;2023-02-04T01:34:10;11.05;;;2.45;;
41921;SDS011;27609;51.002;5.354;2023-02-04T01:36:36;9.02;;;2.58;;
41921;SDS011;27609;51.002;5.354;2023-02-04T01:39:02;12.02;;;2.47;;
41921;SDS011;27609;51.002;5.354;2023-02-04T01:44:50;18.80;;;2.45;;
41921;SDS011;27609;51.002;5.354;2023-02-04T01:47:17;9.93;;;2.30;;
41921;SDS011;27609;51.002;5.354;2023-02-04T01:49:43;12.60;;;2.58;;
41921;SDS011;27609;51.002;5.354;2023-02-04T01:52:11;10.43;;;3.22;;
41921;SDS011;27609;51.002;5.354;2023-02-04T01:54:37;11.48;;;3.22;;
41921;SDS011;27609;51.002;5.354;2023-02-04T01:57:03;9.38;;;2.67;;
41921;SDS011;27609;51.002;5.354;2023-02-04T01:59:30;14.55;;;3.38;;
41921;SDS011;27609;51.002;5.354;2023-02-04T02:01:57;10.95;;;3.47;;
41921;SDS011;27609;51.002;5.354;2023-02-04T02:04:32;5.88;;;2.20;;
41921;SDS011;27609;51.002;5.354;2023-02-04T02:06:59;7.88;;;2.88;;
41921;SDS011;27609;51.002;5.354;2023-02-04T02:09:28;8.13;;;1.98;;
41921;SDS011;27609;51.002;5.354;2023-02-04T02:11:55;13.50;;;3.17;;
41921;SDS011;27609;51.002;5.354;2023-02-04T02:14:21;13.55;;;2.33;;
41921;SDS011;27609;51.002;5.354;2023-02-04T02:16:47;9.35;;;3.03;;
41921;SDS011;27609;51.002;5.354;2023-02-04T02:19:19;17.02;;;3.67;;
41921;SDS011;27609;51.002;5.354;2023-02-04T02:25:47;9.75;;;3.10;;
41921;SDS011;27609;51.002;5.354;2023-02-04T02:28:15;8.48;;;2.97;;
41921;SDS011;27609;51.002;5.354;2023-02-04T02:30:43;7.82;;;2.83;;
41921;SDS011;27609;51.002;5.354;2023-02-04T02:33:13;12.07;;;4.05;;
41921;SDS011;27609;51.002;5.354;2023-02-04T02:38:46;5.78;;;3.75;;
41921;SDS011;27609;51.002;5.354;2023-02-04T02:41:12;15.35;;;9.60;;
41921;SDS011;27609;51.002;5.354;2023-02-04T02:43:38;24.35;;;10.35;;
41921;SDS011;27609;51.002;5.354;2023-02-04T02:46:04;19.90;;;6.35;;
41921;SDS011;27609;51.002;5.354;2023-02-04T02:48:30;11.65;;;5.28;;
41921;SDS011;27609;51.002;5.354;2023-02-04T02:50:56;10.20;;;3.70;;
41921;SDS011;27609;51.002;5.354;2023-02-04T02:53:22;11.85;;;4.47;;
41921;SDS011;27609;51.002;5.354;2023-02-04T02:55:48;14.73;;;3.90;;
41921;SDS011;27609;51.002;5.354;2023-02-04T03:00:50;10.60;;;3.72;;
41921;SDS011;27609;51.002;5.354;2023-02-04T03:03:20;14.20;;;4.80;;
41921;SDS011;27609;51.002;5.354;2023-02-04T03:05:56;16.90;;;4.95;;
41921;SDS011;27609;51.002;5.354;2023-02-04T03:09:16;14.15;;;4.57;;
41921;SDS011;27609;51.002;5.354;2023-02-04T03:15:04;24.35;;;6.72;;
41921;SDS011;27609;51.002;5.354;2023-02-04T03:20:53;17.58;;;6.88;;
41921;SDS011;27609;51.002;5.354;2023-02-04T03:23:25;26.60;;;7.40;;
41921;SDS011;27609;51.002;5.354;2023-02-04T03:25:51;32.90;;;7.72;;
41921;SDS011;27609;51.002;5.354;2023-02-04T03:28:17;15.82;;;7.80;;
41921;SDS011;27609;51.002;5.354;2023-02-04T03:30:43;32.63;;;7.28;;
41921;SDS011;27609;51.002;5.354;2023-02-04T03:33:09;33.03;;;7.35;;
41921;SDS011;27609;51.002;5.354;2023-02-04T03:38:44;57.22;;;9.23;;
41921;SDS011;27609;51.002;5.354;2023-02-04T03:41:09;69.15;;;10.25;;
41921;SDS011;27609;51.002;5.354;2023-02-04T03:43:35;82.93;;;11.35;;
41921;SDS011;27609;51.002;5.354;2023-02-04T03:46:01;63.17;;;10.65;;
41921;SDS011;27609;51.002;5.354;2023-02-04T03:51:49;52.40;;;9.95;;
41921;SDS011;27609;51.002;5.354;2023-02-04T03:54:15;58.05;;;10.65;;
41921;SDS011;27609;51.002;5.354;2023-02-04T03:56:41;104.47;;;13.77;;
41921;SDS011;27609;51.002;5.354;2023-02-04T03:59:07;74.25;;;14.32;;
41921;SDS011;27609;51.002;5.354;2023-02-04T04:01:33;114.28;;;14.43;;
41921;SDS011;27609;51.002;5.354;2023-02-04T04:03:58;99.47;;;12.57;;
41921;SDS011;27609;51.002;5.354;2023-02-04T04:06:24;86.00;;;13.23;;
41921;SDS011;27609;51.002;5.354;2023-02-04T04:08:52;145.23;;;16.38;;
41921;SDS011;27609;51.002;5.354;2023-02-04T04:11:18;149.50;;;11.88;;
41921;SDS011;27609;51.002;5.354;2023-02-04T04:13:45;179.68;;;13.38;;
41921;SDS011;27609;51.002;5.354;2023-02-04T04:16:11;156.50;;;11.93;;
41921;SDS011;27609;51.002;5.354;2023-02-04T04:18:37;129.57;;;10.55;;
41921;SDS011;27609;51.002;5.354;2023-02-04T04:21:05;136.40;;;17.15;;
41921;SDS011;27609;51.002;5.354;2023-02-04T04:26:53;39.72;;;9.00;;
41921;SDS011;27609;51.002;5.354;2023-02-04T04:32:41;116.65;;;10.85;;
41921;SDS011;27609;51.002;5.354;2023-02-04T04:35:07;37.67;;;8.75;;
41921;SDS011;27609;51.002;5.354;2023-02-04T04:37:33;48.80;;;8.70;;
41921;SDS011;27609;51.002;5.354;2023-02-04T04:39:59;31.80;;;8.10;;
41921;SDS011;27609;51.002;5.354;2023-02-04T04:42:25;46.72;;;8.80;;
41921;SDS011;27609;51.002;5.354;2023-02-04T04:48:22;37.97;;;7.40;;
41921;SDS011;27609;51.002;5.354;2023-02-04T04:50:49;40.65;;;8.95;;
41921;SDS011;27609;51.002;5.354;2023-02-04T04:53:15;48.10;;;8.38;;
41921;SDS011;27609;51.002;5.354;2023-02-04T04:55:41;111.10;;;9.55;;
41921;SDS011;27609;51.002;5.354;2023-02-04T04:58:06;39.72;;;8.48;;
41921;SDS011;27609;51.002;5.354;2023-02-04T05:00:33;69.38;;;9.98;;
41921;SDS011;27609;51.002;5.354;2023-02-04T05:02:58;73.45;;;10.82;;
41921;SDS011;27609;51.002;5.354;2023-02-04T05:05:24;48.30;;;10.00;;
41921;SDS011;27609;51.002;5.354;2023-02-04T05:07:50;23.73;;;8.13;;
41921;SDS011;27609;51.002;5.354;2023-02-04T05:10:17;70.43;;;8.57;;
41921;SDS011;27609;51.002;5.354;2023-02-04T05:12:44;25.92;;;8.30;;
41921;SDS011;27609;51.002;5.354;2023-02-04T05:15:09;45.67;;;8.52;;
41921;SDS011;27609;51.002;5.354;2023-02-04T05:17:35;67.95;;;8.05;;
41921;SDS011;27609;51.002;5.354;2023-02-04T05:25:52;60.25;;;9.10;;
41921;SDS011;27609;51.002;5.354;2023-02-04T05:28:18;74.13;;;12.50;;
41921;SDS011;27609;51.002;5.354;2023-02-04T05:30:43;81.85;;;13.35;;
41921;SDS011;27609;51.002;5.354;2023-02-04T05:33:09;49.42;;;9.35;;
41921;SDS011;27609;51.002;5.354;2023-02-04T05:35:35;50.25;;;9.95;;
41921;SDS011;27609;51.002;5.354;2023-02-04T05:38:00;94.68;;;12.90;;
41921;SDS011;27609;51.002;5.354;2023-02-04T05:40:26;75.25;;;14.15;;
41921;SDS011;27609;51.002;5.354;2023-02-04T05:42:52;80.75;;;11.88;;
41921;SDS011;27609;51.002;5.354;2023-02-04T05:45:18;80.53;;;10.57;;
41921;SDS011;27609;51.002;5.354;2023-02-04T05:47:43;53.55;;;10.52;;
41921;SDS011;27609;51.002;5.354;2023-02-04T05:50:09;49.30;;;9.98;;
41921;SDS011;27609;51.002;5.354;2023-02-04T05:52:36;45.08;;;9.98;;
41921;SDS011;27609;51.002;5.354;2023-02-04T05:55:02;77.78;;;11.20;;
41921;SDS011;27609;51.002;5.354;2023-02-04T06:07:22;24.38;;;9.07;;
41921;SDS011;27609;51.002;5.354;2023-02-04T06:13:17;30.73;;;8.10;;
41921;SDS011;27609;51.002;5.354;2023-02-04T06:15:43;28.42;;;9.35;;
41921;SDS011;27609;51.002;5.354;2023-02-04T06:18:09;20.27;;;8.90;;
41921;SDS011;27609;51.002;5.354;2023-02-04T06:20:34;29.85;;;9.73;;
41921;SDS011;27609;51.002;5.354;2023-02-04T06:29:29;29.70;;;8.63;;
41921;SDS011;27609;51.002;5.354;2023-02-04T06:35:24;26.90;;;9.57;;
41921;SDS011;27609;51.002;5.354;2023-02-04T06:41:28;27.85;;;9.73;;
41921;SDS011;27609;51.002;5.354;2023-02-04T06:47:22;39.67;;;10.70;;
41921;SDS011;27609;51.002;5.354;2023-02-04T06:53:15;45.33;;;11.48;;
41921;SDS011;27609;51.002;5.354;2023-02-04T07:05:26;44.45;;;11.95;;
41921;SDS011;27609;51.002;5.354;2023-02-04T07:11:26;40.67;;;13.05;;
41921;SDS011;27609;51.002;5.354;2023-02-04T07:17:15;34.25;;;12.57;;
41921;SDS011;27609;51.002;5.354;2023-02-04T07:23:19;38.13;;;13.65;;
41921;SDS011;27609;51.002;5.354;2023-02-04T07:29:11;34.28;;;12.27;;
41921;SDS011;27609;51.002;5.354;2023-02-04T07:31:37;36.30;;;12.97;;
41921;SDS011;27609;51.002;5.354;2023-02-04T07:34:02;33.25;;;12.70;;
41921;SDS011;27609;51.002;5.354;2023-02-04T07:39:12;25.25;;;10.80;;
41921;SDS011;27609;51.002;5.354;2023-02-04T07:41:38;31.38;;;12.55;;
41921;SDS011;27609;51.002;5.354;2023-02-04T07:44:04;32.30;;;14.10;;
41921;SDS011;27609;51.002;5.354;2023-02-04T07:46:30;37.75;;;17.35;;
41921;SDS011;27609;51.002;5.354;2023-02-04T07:48:56;40.35;;;16.38;;
41921;SDS011;27609;51.002;5.354;2023-02-04T07:51:22;37.83;;;15.95;;
41921;SDS011;27609;51.002;5.354;2023-02-04T07:53:48;29.58;;;15.55;;
41921;SDS011;27609;51.002;5.354;2023-02-04T07:56:13;30.52;;;13.93;;
41921;SDS011;27609;51.002;5.354;2023-02-04T07:58:39;26.52;;;11.93;;
41921;SDS011;27609;51.002;5.354;2023-02-04T08:01:05;30.25;;;14.10;;
41921;SDS011;27609;51.002;5.354;2023-02-04T08:03:30;29.60;;;14.02;;
41921;SDS011;27609;51.002;5.354;2023-02-04T08:05:56;25.58;;;13.30;;
41921;SDS011;27609;51.002;5.354;2023-02-04T08:08:22;32.75;;;14.63;;
41921;SDS011;27609;51.002;5.354;2023-02-04T08:10:48;28.23;;;14.07;;
41921;SDS011;27609;51.002;5.354;2023-02-04T08:13:13;31.40;;;17.15;;
41921;SDS011;27609;51.002;5.354;2023-02-04T08:15:39;32.45;;;16.98;;
41921;SDS011;27609;51.002;5.354;2023-02-04T08:18:05;31.73;;;18.73;;
41921;SDS011;27609;51.002;5.354;2023-02-04T08:20:31;32.75;;;15.15;;
41921;SDS011;27609;51.002;5.354;2023-02-04T08:22:56;34.33;;;16.05;;
41921;SDS011;27609;51.002;5.354;2023-02-04T08:25:34;27.17;;;14.30;;
41921;SDS011;27609;51.002;5.354;2023-02-04T08:28:00;27.48;;;13.57;;
41921;SDS011;27609;51.002;5.354;2023-02-04T08:30:26;39.88;;;18.48;;
41921;SDS011;27609;51.002;5.354;2023-02-04T08:32:52;27.27;;;13.45;;
41921;SDS011;27609;51.002;5.354;2023-02-04T08:35:17;33.78;;;14.43;;
41921;SDS011;27609;51.002;5.354;2023-02-04T08:37:58;29.60;;;15.45;;
41921;SDS011;27609;51.002;5.354;2023-02-04T08:50:41;30.95;;;14.95;;
41921;SDS011;27609;51.002;5.354;2023-02-04T08:59:34;37.28;;;17.00;;
41921;SDS011;27609;51.002;5.354;2023-02-04T09:02:00;35.47;;;17.27;;
41921;SDS011;27609;51.002;5.354;2023-02-04T09:30:42;47.45;;;18.30;;
41921;SDS011;27609;51.002;5.354;2023-02-04T09:36:31;48.08;;;19.88;;
41921;SDS011;27609;51.002;5.354;2023-02-04T09:42:08;50.88;;;21.17;;
41921;SDS011;27609;51.002;5.354;2023-02-04T09:48:00;45.92;;;19.00;;
41921;SDS011;27609;51.002;5.354;2023-02-04T09:50:28;50.72;;;20.85;;
41921;SDS011;27609;51.002;5.354;2023-02-04T09:53:02;46.17;;;19.77;;
41921;SDS011;27609;51.002;5.354;2023-02-04T09:55:31;45.00;;;21.88;;
41921;SDS011;27609;51.002;5.354;2023-02-04T09:57:59;51.67;;;19.65;;
41921;SDS011;27609;51.002;5.354;2023-02-04T10:00:33;44.85;;;19.77;;
41921;SDS011;27609;51.002;5.354;2023-02-04T10:02:59;49.00;;;19.55;;
41921;SDS011;27609;51.002;5.354;2023-02-04T10:05:27;41.80;;;17.65;;
41921;SDS011;27609;51.002;5.354;2023-02-04T10:07:55;46.38;;;17.92;;
41921;SDS011;27609;51.002;5.354;2023-02-04T10:10:22;50.53;;;19.42;;
41921;SDS011;27609;51.002;5.354;2023-02-04T10:12:51;46.65;;;18.58;;
41921;SDS011;27609;51.002;5.354;2023-02-04T10:15:22;40.38;;;18.52;;
41921;SDS011;27609;51.002;5.354;2023-02-04T10:17:50;46.33;;;19.33;;
41921;SDS011;27609;51.002;5.354;2023-02-04T10:20:22;51.33;;;19.15;;
41921;SDS011;27609;51.002;5.354;2023-02-04T10:22:50;38.40;;;19.30;;
41921;SDS011;27609;51.002;5.354;2023-02-04T10:25:18;42.85;;;19.17;;
41921;SDS011;27609;51.002;5.354;2023-02-04T10:27:46;47.45;;;19.85;;
41921;SDS011;27609;51.002;5.354;2023-02-04T10:30:26;44.20;;;18.08;;
41921;SDS011;27609;51.002;5.354;2023-02-04T10:32:59;41.13;;;17.73;;
41921;SDS011;27609;51.002;5.354;2023-02-04T10:35:44;45.72;;;19.33;;
41921;SDS011;27609;51.002;5.354;2023-02-04T10:38:15;45.95;;;18.10;;
41921;SDS011;27609;51.002;5.354;2023-02-04T10:40:40;40.08;;;17.95;;
41921;SDS011;27609;51.002;5.354;2023-02-04T10:43:09;49.17;;;19.27;;
41921;SDS011;27609;51.002;5.354;2023-02-04T10:45:39;42.88;;;18.13;;
41921;SDS011;27609;51.002;5.354;2023-02-04T10:48:14;40.67;;;17.67;;
41921;SDS011;27609;51.002;5.354;2023-02-04T10:50:41;45.92;;;18.55;;
41921;SDS011;27609;51.002;5.354;2023-02-04T10:53:08;40.95;;;17.70;;
41921;SDS011;27609;51.002;5.354;2023-02-04T10:55:54;44.97;;;16.63;;
41921;SDS011;27609;51.002;5.354;2023-02-04T10:58:25;44.13;;;16.70;;
41921;SDS011;27609;51.002;5.354;2023-02-04T11:00:52;39.58;;;17.55;;
41921;SDS011;27609;51.002;5.354;2023-02-04T11:03:25;44.03;;;17.60;;
41921;SDS011;27609;51.002;5.354;2023-02-04T11:05:55;39.22;;;16.85;;
41921;SDS011;27609;51.002;5.354;2023-02-04T11:14:21;34.47;;;15.48;;
41921;SDS011;27609;51.002;5.354;2023-02-04T11:16:50;41.15;;;15.70;;
41921;SDS011;27609;51.002;5.354;2023-02-04T11:19:28;42.97;;;15.77;;
41921;SDS011;27609;51.002;5.354;2023-02-04T11:22:03;48.08;;;16.92;;
41921;SDS011;27609;51.002;5.354;2023-02-04T11:24:44;37.50;;;15.82;;
41921;SDS011;27609;51.002;5.354;2023-02-04T11:27:19;38.22;;;17.00;;
41921;SDS011;27609;51.002;5.354;2023-02-04T11:30:16;36.40;;;16.25;;
41921;SDS011;27609;51.002;5.354;2023-02-04T11:32:54;38.78;;;15.43;;
41921;SDS011;27609;51.002;5.354;2023-02-04T11:35:26;45.37;;;16.50;;
41921;SDS011;27609;51.002;5.354;2023-02-04T11:37:53;34.78;;;15.35;;
41921;SDS011;27609;51.002;5.354;2023-02-04T11:40:21;33.60;;;13.77;;
41921;SDS011;27609;51.002;5.354;2023-02-04T11:42:54;37.47;;;15.13;;
41921;SDS011;27609;51.002;5.354;2023-02-04T11:45:29;41.17;;;15.00;;
41921;SDS011;27609;51.002;5.354;2023-02-04T11:47:58;36.88;;;15.27;;
41921;SDS011;27609;51.002;5.354;2023-02-04T11:50:33;33.67;;;14.10;;
41921;SDS011;27609;51.002;5.354;2023-02-04T11:53:02;34.83;;;13.07;;
41921;SDS011;27609;51.002;5.354;2023-02-04T11:55:34;28.42;;;13.45;;
41921;SDS011;27609;51.002;5.354;2023-02-04T12:04:31;32.67;;;11.23;;
41921;SDS011;27609;51.002;5.354;2023-02-04T12:06:57;28.17;;;12.05;;
41921;SDS011;27609;51.002;5.354;2023-02-04T12:12:21;26.95;;;11.55;;
41921;SDS011;27609;51.002;5.354;2023-02-04T12:14:56;29.77;;;11.98;;
41921;SDS011;27609;51.002;5.354;2023-02-04T12:18:08;36.08;;;12.57;;
41921;SDS011;27609;51.002;5.354;2023-02-04T12:20:40;27.52;;;10.20;;
41921;SDS011;27609;51.002;5.354;2023-02-04T12:23:06;25.48;;;10.10;;
41921;SDS011;27609;51.002;5.354;2023-02-04T12:25:32;25.73;;;10.20;;
41921;SDS011;27609;51.002;5.354;2023-02-04T12:27:58;28.17;;;9.95;;
41921;SDS011;27609;51.002;5.354;2023-02-04T12:30:25;33.38;;;11.55;;
41921;SDS011;27609;51.002;5.354;2023-02-04T12:32:51;30.85;;;10.98;;
41921;SDS011;27609;51.002;5.354;2023-02-04T12:56:47;27.08;;;8.60;;
41921;SDS011;27609;51.002;5.354;2023-02-04T13:38:51;17.35;;;10.90;;
41921;SDS011;27609;51.002;5.354;2023-02-04T13:41:17;32.67;;;13.77;;
41921;SDS011;27609;51.002;5.354;2023-02-04T13:56:32;25.92;;;11.48;;
41921;SDS011;27609;51.002;5.354;2023-02-04T14:02:31;30.42;;;12.52;;
41921;SDS011;27609;51.002;5.354;2023-02-04T14:07:42;32.85;;;13.95;;
41921;SDS011;27609;51.002;5.354;2023-02-04T14:10:08;36.50;;;15.35;;
41921;SDS011;27609;51.002;5.354;2023-02-04T14:12:34;33.38;;;15.32;;
41921;SDS011;27609;51.002;5.354;2023-02-04T14:14:59;54.33;;;19.45;;
41921;SDS011;27609;51.002;5.354;2023-02-04T14:23:07;44.58;;;17.35;;
41921;SDS011;27609;51.002;5.354;2023-02-04T14:25:33;38.35;;;16.58;;
41921;SDS011;27609;51.002;5.354;2023-02-04T14:28:00;38.92;;;18.92;;
41921;SDS011;27609;51.002;5.354;2023-02-04T14:33:59;28.73;;;15.02;;
41921;SDS011;27609;51.002;5.354;2023-02-04T14:36:27;40.58;;;18.27;;
41921;SDS011;27609;51.002;5.354;2023-02-04T14:38:52;46.15;;;17.88;;
41921;SDS011;27609;51.002;5.354;2023-02-04T14:41:18;42.15;;;18.00;;
41921;SDS011;27609;51.002;5.354;2023-02-04T14:43:45;37.50;;;18.08;;
41921;SDS011;27609;51.002;5.354;2023-02-04T14:46:11;33.80;;;15.38;;
41921;SDS011;27609;51.002;5.354;2023-02-04T14:48:37;43.35;;;18.98;;
41921;SDS011;27609;51.002;5.354;2023-02-04T14:51:03;37.10;;;15.40;;
41921;SDS011;27609;51.002;5.354;2023-02-04T14:53:29;36.28;;;16.80;;
41921;SDS011;27609;51.002;5.354;2023-02-04T14:55:55;37.70;;;15.48;;
41921;SDS011;27609;51.002;5.354;2023-02-04T14:58:21;34.30;;;15.70;;
41921;SDS011;27609;51.002;5.354;2023-02-04T15:00:47;39.17;;;17.10;;
41921;SDS011;27609;51.002;5.354;2023-02-04T15:03:12;34.53;;;14.45;;
41921;SDS011;27609;51.002;5.354;2023-02-04T15:05:38;28.48;;;15.02;;
41921;SDS011;27609;51.002;5.354;2023-02-04T15:08:04;33.88;;;17.15;;
41921;SDS011;27609;51.002;5.354;2023-02-04T15:10:30;30.80;;;14.27;;
41921;SDS011;27609;51.002;5.354;2023-02-04T15:12:55;27.42;;;14.85;;
41921;SDS011;27609;51.002;5.354;2023-02-04T15:15:21;33.85;;;13.68;;
41921;SDS011;27609;51.002;5.354;2023-02-04T15:17:47;24.27;;;11.88;;
41921;SDS011;27609;51.002;5.354;2023-02-04T15:20:14;29.60;;;12.25;;
41921;SDS011;27609;51.002;5.354;2023-02-04T15:22:40;31.08;;;13.93;;
41921;SDS011;27609;51.002;5.354;2023-02-04T15:25:06;25.70;;;13.68;;
41921;SDS011;27609;51.002;5.354;2023-02-04T15:27:31;26.90;;;13.23;;
41921;SDS011;27609;51.002;5.354;2023-02-04T15:29:57;27.80;;;13.38;;
41921;SDS011;27609;51.002;5.354;2023-02-04T15:32:23;26.33;;;13.23;;
41921;SDS011;27609;51.002;5.354;2023-02-04T15:34:49;32.65;;;14.57;;
41921;SDS011;27609;51.002;5.354;2023-02-04T15:37:15;27.33;;;14.90;;
41921;SDS011;27609;51.002;5.354;2023-02-04T15:39:40;27.25;;;12.57;;
41921;SDS011;27609;51.002;5.354;2023-02-04T15:42:07;33.33;;;14.27;;
41921;SDS011;27609;51.002;5.354;2023-02-04T15:44:33;34.42;;;14.40;;
41921;SDS011;27609;51.002;5.354;2023-02-04T15:46:59;30.70;;;14.60;;
41921;SDS011;27609;51.002;5.354;2023-02-04T15:49:25;35.70;;;16.88;;
41921;SDS011;27609;51.002;5.354;2023-02-04T15:51:51;44.72;;;16.50;;
41921;SDS011;27609;51.002;5.354;2023-02-04T15:54:17;31.30;;;14.70;;
41921;SDS011;27609;51.002;5.354;2023-02-04T15:56:42;35.50;;;14.95;;
41921;SDS011;27609;51.002;5.354;2023-02-04T15:59:08;35.33;;;16.02;;
41921;SDS011;27609;51.002;5.354;2023-02-04T16:01:34;29.15;;;15.73;;
41921;SDS011;27609;51.002;5.354;2023-02-04T16:04:00;42.58;;;18.13;;
41921;SDS011;27609;51.002;5.354;2023-02-04T16:06:25;44.53;;;17.92;;
41921;SDS011;27609;51.002;5.354;2023-02-04T16:08:51;29.10;;;17.02;;
41921;SDS011;27609;51.002;5.354;2023-02-04T16:11:17;35.53;;;17.08;;
41921;SDS011;27609;51.002;5.354;2023-02-04T16:13:43;33.78;;;15.65;;
41921;SDS011;27609;51.002;5.354;2023-02-04T16:16:08;42.75;;;17.77;;
41921;SDS011;27609;51.002;5.354;2023-02-04T16:18:35;34.90;;;16.58;;
41921;SDS011;27609;51.002;5.354;2023-02-04T16:21:02;37.05;;;17.55;;
41921;SDS011;27609;51.002;5.354;2023-02-04T16:23:28;29.95;;;15.85;;
41921;SDS011;27609;51.002;5.354;2023-02-04T16:25:53;34.75;;;18.15;;
41921;SDS011;27609;51.002;5.354;2023-02-04T16:28:19;35.63;;;18.48;;
41921;SDS011;27609;51.002;5.354;2023-02-04T16:30:45;32.75;;;18.30;;
41921;SDS011;27609;51.002;5.354;2023-02-04T16:33:10;40.63;;;19.55;;
41921;SDS011;27609;51.002;5.354;2023-02-04T16:35:56;35.72;;;18.10;;
41921;SDS011;27609;51.002;5.354;2023-02-04T16:38:24;35.20;;;18.75;;
41921;SDS011;27609;51.002;5.354;2023-02-04T16:40:50;40.47;;;17.98;;
41921;SDS011;27609;51.002;5.354;2023-02-04T16:43:16;37.30;;;19.35;;
41921;SDS011;27609;51.002;5.354;2023-02-04T16:45:42;38.53;;;18.65;;
41921;SDS011;27609;51.002;5.354;2023-02-04T16:48:07;45.10;;;20.55;;
41921;SDS011;27609;51.002;5.354;2023-02-04T16:50:33;44.53;;;21.52;;
41921;SDS011;27609;51.002;5.354;2023-02-04T16:52:59;47.10;;;20.67;;
41921;SDS011;27609;51.002;5.354;2023-02-04T16:55:24;44.95;;;22.30;;
41921;SDS011;27609;51.002;5.354;2023-02-04T16:57:53;44.38;;;19.73;;
41921;SDS011;27609;51.002;5.354;2023-02-04T17:00:18;51.03;;;22.48;;
41921;SDS011;27609;51.002;5.354;2023-02-04T17:02:44;45.03;;;21.58;;
41921;SDS011;27609;51.002;5.354;2023-02-04T17:05:10;41.05;;;19.10;;
41921;SDS011;27609;51.002;5.354;2023-02-04T17:07:36;53.90;;;21.63;;
41921;SDS011;27609;51.002;5.354;2023-02-04T17:10:02;40.65;;;21.42;;
41921;SDS011;27609;51.002;5.354;2023-02-04T17:12:28;49.28;;;23.17;;
41921;SDS011;27609;51.002;5.354;2023-02-04T17:14:54;45.00;;;22.35;;
41921;SDS011;27609;51.002;5.354;2023-02-04T17:17:20;54.60;;;22.73;;
41921;SDS011;27609;51.002;5.354;2023-02-04T17:19:46;54.00;;;22.98;;
41921;SDS011;27609;51.002;5.354;2023-02-04T17:22:11;45.83;;;22.65;;
41921;SDS011;27609;51.002;5.354;2023-02-04T17:24:37;50.35;;;23.45;;
41921;SDS011;27609;51.002;5.354;2023-02-04T17:27:07;48.00;;;24.27;;
41921;SDS011;27609;51.002;5.354;2023-02-04T17:29:34;52.08;;;24.27;;
41921;SDS011;27609;51.002;5.354;2023-02-04T17:31:59;59.15;;;24.73;;
41921;SDS011;27609;51.002;5.354;2023-02-04T17:34:25;59.15;;;23.73;;
41921;SDS011;27609;51.002;5.354;2023-02-04T17:36:52;43.85;;;22.05;;
41921;SDS011;27609;51.002;5.354;2023-02-04T17:39:18;55.55;;;24.33;;
41921;SDS011;27609;51.002;5.354;2023-02-04T17:41:44;58.72;;;23.85;;
41921;SDS011;27609;51.002;5.354;2023-02-04T17:44:10;59.20;;;25.45;;
41921;SDS011;27609;51.002;5.354;2023-02-04T17:46:41;52.05;;;25.05;;
41921;SDS011;27609;51.002;5.354;2023-02-04T17:49:07;56.97;;;24.80;;
41921;SDS011;27609;51.002;5.354;2023-02-04T17:51:33;64.85;;;25.15;;
41921;SDS011;27609;51.002;5.354;2023-02-04T17:53:58;52.38;;;24.40;;
41921;SDS011;27609;51.002;5.354;2023-02-04T17:56:24;59.58;;;25.25;;
41921;SDS011;27609;51.002;5.354;2023-02-04T17:58:51;58.50;;;25.23;;
41921;SDS011;27609;51.002;5.354;2023-02-04T18:01:18;62.92;;;26.50;;
41921;SDS011;27609;51.002;5.354;2023-02-04T18:03:46;60.33;;;26.50;;
41921;SDS011;27609;51.002;5.354;2023-02-04T18:06:19;66.47;;;27.17;;
41921;SDS011;27609;51.002;5.354;2023-02-04T18:08:44;66.07;;;27.05;;
41921;SDS011;27609;51.002;5.354;2023-02-04T18:11:13;64.78;;;28.92;;
41921;SDS011;27609;51.002;5.354;2023-02-04T18:13:42;68.68;;;28.38;;
41921;SDS011;27609;51.002;5.354;2023-02-04T18:16:14;69.30;;;28.70;;
41921;SDS011;27609;51.002;5.354;2023-02-04T18:18:44;72.93;;;29.55;;
41921;SDS011;27609;51.002;5.354;2023-02-04T18:23:54;65.13;;;30.27;;
41921;SDS011;27609;51.002;5.354;2023-02-04T18:26:24;68.68;;;28.40;;
41921;SDS011;27609;51.002;5.354;2023-02-04T18:28:50;72.43;;;29.88;;
41921;SDS011;27609;51.002;5.354;2023-02-04T18:31:38;78.10;;;32.47;;
41921;SDS011;27609;51.002;5.354;2023-02-04T18:34:17;81.38;;;32.45;;
41921;SDS011;27609;51.002;5.354;2023-02-04T18:36:47;86.95;;;31.95;;
41921;SDS011;27609;51.002;5.354;2023-02-04T18:39:18;81.80;;;31.17;;
41921;SDS011;27609;51.002;5.354;2023-02-04T18:41:49;84.95;;;31.63;;
41921;SDS011;27609;51.002;5.354;2023-02-04T18:44:27;83.80;;;32.70;;
41921;SDS011;27609;51.002;5.354;2023-02-04T18:46:55;77.35;;;33.78;;
41921;SDS011;27609;51.002;5.354;2023-02-04T18:49:28;82.97;;;32.72;;
41921;SDS011;27609;51.002;5.354;2023-02-04T18:51:57;76.85;;;35.17;;
41921;SDS011;27609;51.002;5.354;2023-02-04T18:54:36;84.22;;;35.97;;
41921;SDS011;27609;51.002;5.354;2023-02-04T18:59:38;86.25;;;32.90;;
41921;SDS011;27609;51.002;5.354;2023-02-04T19:02:38;76.15;;;34.50;;
41921;SDS011;27609;51.002;5.354;2023-02-04T19:05:18;75.57;;;32.55;;
41921;SDS011;27609;51.002;5.354;2023-02-04T19:08:15;73.95;;;33.38;;
41921;SDS011;27609;51.002;5.354;2023-02-04T19:10:45;65.93;;;29.88;;
41921;SDS011;27609;51.002;5.354;2023-02-04T19:16:20;54.67;;;27.02;;
41921;SDS011;27609;51.002;5.354;2023-02-04T19:18:58;57.17;;;27.40;;
41921;SDS011;27609;51.002;5.354;2023-02-04T19:21:25;55.95;;;27.23;;